sensor_id;sensor_type;location;lat;lon;timestamp;P1;durP1;ratioP1;P2;durP2;ratioP2
68089;SDS011;54880;50.986;6.990;2022-08-11T00:00:34;8.48;;;3.30;;
68089;SDS011;54880;50.986;6.990;2022-08-11T00:03:02;7.18;;;3.45;;
68089;SDS011;54880;50.986;6.990;2022-08-11T00:05:28;6.95;;;3.47;;
68089;SDS011;54880;50.986;6.990;2022-08-11T00:07:54;6.35;;;3.30;;
68089;SDS011;54880;50.986;6.990;2022-08-11T00:10:21;7.60;;;3.30;;
68089;SDS011;54880;50.986;6.990;2022-08-11T00:12:51;8.77;;;3.50;;
68089;SDS011;54880;50.986;6.990;2022-08-11T00:15:17;6.45;;;3.55;;
68089;SDS011;54880;50.986;6.990;2022-08-11T00:17:42;7.83;;;3.33;;
68089;SDS011;54880;50.986;6.990;2022-08-11T00:20:09;7.63;;;3.80;;
68089;SDS011;54880;50.986;6.990;2022-08-11T00:22:35;7.87;;;3.47;;
68089;SDS011;54880;50.986;6.990;2022-08-11T00:25:18;6.88;;;3.38;;
68089;SDS011;54880;50.986;6.990;2022-08-11T00:27:44;7.18;;;3.67;;
68089;SDS011;54880;50.986;6.990;2022-08-11T00:30:11;6.72;;;3.72;;
68089;SDS011;54880;50.986;6.990;2022-08-11T00:32:38;6.90;;;3.50;;
68089;SDS011;54880;50.986;6.990;2022-08-11T00:35:03;7.13;;;3.40;;
68089;SDS011;54880;50.986;6.990;2022-08-11T00:37:31;7.22;;;3.40;;
68089;SDS011;54880;50.986;6.990;2022-08-11T00:39:56;9.27;;;3.42;;
68089;SDS011;54880;50.986;6.990;2022-08-11T00:42:39;9.02;;;3.50;;
68089;SDS011;54880;50.986;6.990;2022-08-11T00:50:41;9.18;;;3.80;;
68089;SDS011;54880;50.986;6.990;2022-08-11T01:01:11;9.13;;;3.83;;
68089;SDS011;54880;50.986;6.990;2022-08-11T01:25:06;7.53;;;3.83;;
68089;SDS011;54880;50.986;6.990;2022-08-11T01:35:38;8.40;;;3.80;;
68089;SDS011;54880;50.986;6.990;2022-08-11T01:40:50;7.40;;;3.70;;
68089;SDS011;54880;50.986;6.990;2022-08-11T01:54:04;7.10;;;3.83;;
68089;SDS011;54880;50.986;6.990;2022-08-11T01:56:37;11.75;;;4.40;;
68089;SDS011;54880;50.986;6.990;2022-08-11T02:09:10;8.35;;;4.05;;
68089;SDS011;54880;50.986;6.990;2022-08-11T02:11:37;9.50;;;4.03;;
68089;SDS011;54880;50.986;6.990;2022-08-11T02:16:46;7.18;;;3.95;;
68089;SDS011;54880;50.986;6.990;2022-08-11T02:22:04;9.35;;;4.07;;
68089;SDS011;54880;50.986;6.990;2022-08-11T02:24:54;7.72;;;4.05;;
68089;SDS011;54880;50.986;6.990;2022-08-11T02:27:24;7.32;;;3.55;;
68089;SDS011;54880;50.986;6.990;2022-08-11T02:30:07;8.20;;;4.28;;
68089;SDS011;54880;50.986;6.990;2022-08-11T02:32:40;8.90;;;4.30;;
68089;SDS011;54880;50.986;6.990;2022-08-11T02:35:34;7.47;;;3.55;;
68089;SDS011;54880;50.986;6.990;2022-08-11T02:41:02;10.73;;;4.00;;
68089;SDS011;54880;50.986;6.990;2022-08-11T02:44:09;8.38;;;4.35;;
68089;SDS011;54880;50.986;6.990;2022-08-11T02:47:26;8.85;;;4.20;;
68089;SDS011;54880;50.986;6.990;2022-08-11T02:55:05;9.77;;;3.90;;
68089;SDS011;54880;50.986;6.990;2022-08-11T02:57:42;9.00;;;4.22;;
68089;SDS011;54880;50.986;6.990;2022-08-11T03:00:12;7.35;;;4.18;;
68089;SDS011;54880;50.986;6.990;2022-08-11T03:02:43;8.48;;;4.38;;
68089;SDS011;54880;50.986;6.990;2022-08-11T03:10:22;8.55;;;4.10;;
68089;SDS011;54880;50.986;6.990;2022-08-11T03:16:11;11.43;;;4.57;;
68089;SDS011;54880;50.986;6.990;2022-08-11T03:21:37;7.67;;;4.00;;
68089;SDS011;54880;50.986;6.990;2022-08-11T03:26:34;9.43;;;4.50;;
68089;SDS011;54880;50.986;6.990;2022-08-11T03:29:08;10.20;;;4.95;;
68089;SDS011;54880;50.986;6.990;2022-08-11T03:34:06;11.45;;;4.40;;
68089;SDS011;54880;50.986;6.990;2022-08-11T03:39:11;9.63;;;4.20;;
68089;SDS011;54880;50.986;6.990;2022-08-11T03:52:27;8.32;;;4.10;;
68089;SDS011;54880;50.986;6.990;2022-08-11T03:55:03;10.38;;;4.35;;
68089;SDS011;54880;50.986;6.990;2022-08-11T04:31:35;8.87;;;4.10;;
68089;SDS011;54880;50.986;6.990;2022-08-11T04:34:26;9.45;;;4.75;;
68089;SDS011;54880;50.986;6.990;2022-08-11T04:37:05;10.65;;;4.50;;
68089;SDS011;54880;50.986;6.990;2022-08-11T04:39:58;11.73;;;4.90;;
68089;SDS011;54880;50.986;6.990;2022-08-11T04:48:15;10.70;;;5.35;;
68089;SDS011;54880;50.986;6.990;2022-08-11T04:51:09;10.63;;;5.05;;
68089;SDS011;54880;50.986;6.990;2022-08-11T04:56:48;10.93;;;5.07;;
68089;SDS011;54880;50.986;6.990;2022-08-11T05:02:38;13.38;;;4.85;;
68089;SDS011;54880;50.986;6.990;2022-08-11T05:08:13;9.50;;;5.10;;
68089;SDS011;54880;50.986;6.990;2022-08-11T05:13:32;9.60;;;4.78;;
68089;SDS011;54880;50.986;6.990;2022-08-11T05:19:30;10.15;;;5.50;;
68089;SDS011;54880;50.986;6.990;2022-08-11T05:22:13;10.15;;;5.28;;
68089;SDS011;54880;50.986;6.990;2022-08-11T05:25:05;15.00;;;4.77;;
68089;SDS011;54880;50.986;6.990;2022-08-11T05:28:34;9.50;;;5.22;;
68089;SDS011;54880;50.986;6.990;2022-08-11T05:30:59;10.63;;;5.18;;
68089;SDS011;54880;50.986;6.990;2022-08-11T05:34:18;10.52;;;4.93;;
68089;SDS011;54880;50.986;6.990;2022-08-11T05:36:56;10.40;;;5.80;;
68089;SDS011;54880;50.986;6.990;2022-08-11T05:39:25;12.23;;;5.37;;
68089;SDS011;54880;50.986;6.990;2022-08-11T05:42:10;12.45;;;5.25;;
68089;SDS011;54880;50.986;6.990;2022-08-11T05:44:56;10.25;;;5.03;;
68089;SDS011;54880;50.986;6.990;2022-08-11T05:47:41;15.77;;;5.60;;
68089;SDS011;54880;50.986;6.990;2022-08-11T05:50:25;14.32;;;5.60;;
68089;SDS011;54880;50.986;6.990;2022-08-11T05:53:11;14.87;;;5.83;;
68089;SDS011;54880;50.986;6.990;2022-08-11T05:55:55;12.50;;;5.30;;
68089;SDS011;54880;50.986;6.990;2022-08-11T05:58:41;16.35;;;5.45;;
68089;SDS011;54880;50.986;6.990;2022-08-11T06:01:07;10.13;;;5.07;;
68089;SDS011;54880;50.986;6.990;2022-08-11T06:03:33;13.15;;;5.15;;
68089;SDS011;54880;50.986;6.990;2022-08-11T06:06:23;13.50;;;5.03;;
68089;SDS011;54880;50.986;6.990;2022-08-11T06:08:49;12.05;;;5.15;;
68089;SDS011;54880;50.986;6.990;2022-08-11T06:11:19;10.63;;;4.93;;
68089;SDS011;54880;50.986;6.990;2022-08-11T06:13:44;9.67;;;4.47;;
68089;SDS011;54880;50.986;6.990;2022-08-11T06:16:10;8.82;;;4.57;;
68089;SDS011;54880;50.986;6.990;2022-08-11T06:18:38;10.80;;;4.87;;
68089;SDS011;54880;50.986;6.990;2022-08-11T06:21:07;12.45;;;4.78;;
68089;SDS011;54880;50.986;6.990;2022-08-11T06:23:33;11.55;;;4.55;;
68089;SDS011;54880;50.986;6.990;2022-08-11T06:25:58;10.82;;;4.20;;
68089;SDS011;54880;50.986;6.990;2022-08-11T06:28:32;9.63;;;4.35;;
68089;SDS011;54880;50.986;6.990;2022-08-11T06:30:57;8.07;;;4.23;;
68089;SDS011;54880;50.986;6.990;2022-08-11T06:41:11;11.43;;;4.13;;
68089;SDS011;54880;50.986;6.990;2022-08-11T06:46:38;10.95;;;4.32;;
68089;SDS011;54880;50.986;6.990;2022-08-11T06:49:05;12.15;;;4.50;;
68089;SDS011;54880;50.986;6.990;2022-08-11T06:51:33;7.57;;;3.83;;
68089;SDS011;54880;50.986;6.990;2022-08-11T06:53:59;10.43;;;4.40;;
68089;SDS011;54880;50.986;6.990;2022-08-11T06:56:26;10.38;;;4.20;;
68089;SDS011;54880;50.986;6.990;2022-08-11T06:59:10;12.07;;;4.55;;
68089;SDS011;54880;50.986;6.990;2022-08-11T07:04:34;8.77;;;3.70;;
68089;SDS011;54880;50.986;6.990;2022-08-11T07:10:10;7.25;;;4.03;;
68089;SDS011;54880;50.986;6.990;2022-08-11T07:12:58;11.55;;;3.72;;
68089;SDS011;54880;50.986;6.990;2022-08-11T07:15:43;7.55;;;3.80;;
68089;SDS011;54880;50.986;6.990;2022-08-11T07:18:10;11.20;;;4.20;;
68089;SDS011;54880;50.986;6.990;2022-08-11T07:20:54;13.40;;;4.07;;
68089;SDS011;54880;50.986;6.990;2022-08-11T07:23:48;11.30;;;3.80;;
68089;SDS011;54880;50.986;6.990;2022-08-11T07:26:33;9.95;;;4.43;;
68089;SDS011;54880;50.986;6.990;2022-08-11T07:29:17;7.43;;;3.35;;
68089;SDS011;54880;50.986;6.990;2022-08-11T07:31:47;8.23;;;3.37;;
68089;SDS011;54880;50.986;6.990;2022-08-11T07:34:27;8.77;;;3.70;;
68089;SDS011;54880;50.986;6.990;2022-08-11T07:36:58;9.02;;;3.67;;
68089;SDS011;54880;50.986;6.990;2022-08-11T07:39:25;8.15;;;4.15;;
68089;SDS011;54880;50.986;6.990;2022-08-11T07:41:52;7.68;;;3.88;;
68089;SDS011;54880;50.986;6.990;2022-08-11T07:44:17;9.70;;;3.97;;
68089;SDS011;54880;50.986;6.990;2022-08-11T07:46:49;8.57;;;3.33;;
68089;SDS011;54880;50.986;6.990;2022-08-11T07:49:34;10.70;;;3.83;;
68089;SDS011;54880;50.986;6.990;2022-08-11T07:52:19;7.87;;;3.60;;
68089;SDS011;54880;50.986;6.990;2022-08-11T07:55:00;9.93;;;3.65;;
68089;SDS011;54880;50.986;6.990;2022-08-11T07:57:26;9.02;;;3.60;;
68089;SDS011;54880;50.986;6.990;2022-08-11T08:00:11;11.45;;;3.55;;
68089;SDS011;54880;50.986;6.990;2022-08-11T08:02:55;10.52;;;3.90;;
68089;SDS011;54880;50.986;6.990;2022-08-11T08:05:41;6.83;;;3.90;;
68089;SDS011;54880;50.986;6.990;2022-08-11T08:08:25;6.95;;;3.65;;
68089;SDS011;54880;50.986;6.990;2022-08-11T08:11:08;7.63;;;3.40;;
68089;SDS011;54880;50.986;6.990;2022-08-11T08:13:53;13.48;;;3.85;;
68089;SDS011;54880;50.986;6.990;2022-08-11T08:16:38;10.23;;;3.90;;
68089;SDS011;54880;50.986;6.990;2022-08-11T08:19:22;10.60;;;4.17;;
68089;SDS011;54880;50.986;6.990;2022-08-11T08:21:48;7.07;;;3.60;;
68089;SDS011;54880;50.986;6.990;2022-08-11T08:24:14;9.00;;;3.47;;
68089;SDS011;54880;50.986;6.990;2022-08-11T08:26:40;9.67;;;3.57;;
68089;SDS011;54880;50.986;6.990;2022-08-11T08:29:34;7.43;;;3.47;;
68089;SDS011;54880;50.986;6.990;2022-08-11T08:32:19;11.63;;;3.33;;
68089;SDS011;54880;50.986;6.990;2022-08-11T08:34:46;6.75;;;3.03;;
68089;SDS011;54880;50.986;6.990;2022-08-11T08:37:13;6.43;;;3.42;;
68089;SDS011;54880;50.986;6.990;2022-08-11T08:39:43;8.43;;;3.50;;
68089;SDS011;54880;50.986;6.990;2022-08-11T08:42:09;6.93;;;3.53;;
68089;SDS011;54880;50.986;6.990;2022-08-11T08:44:38;7.77;;;3.17;;
68089;SDS011;54880;50.986;6.990;2022-08-11T08:47:04;9.80;;;3.50;;
68089;SDS011;54880;50.986;6.990;2022-08-11T08:49:32;8.25;;;3.35;;
68089;SDS011;54880;50.986;6.990;2022-08-11T08:51:59;7.90;;;3.40;;
68089;SDS011;54880;50.986;6.990;2022-08-11T08:54:31;10.77;;;3.33;;
68089;SDS011;54880;50.986;6.990;2022-08-11T08:56:58;6.97;;;3.07;;
68089;SDS011;54880;50.986;6.990;2022-08-11T08:59:27;9.25;;;3.30;;
68089;SDS011;54880;50.986;6.990;2022-08-11T09:01:59;8.25;;;3.67;;
68089;SDS011;54880;50.986;6.990;2022-08-11T09:04:25;10.73;;;3.50;;
68089;SDS011;54880;50.986;6.990;2022-08-11T09:06:51;9.53;;;3.53;;
68089;SDS011;54880;50.986;6.990;2022-08-11T09:09:17;9.07;;;3.40;;
68089;SDS011;54880;50.986;6.990;2022-08-11T09:11:43;9.88;;;3.83;;
68089;SDS011;54880;50.986;6.990;2022-08-11T09:14:24;10.43;;;3.42;;
68089;SDS011;54880;50.986;6.990;2022-08-11T09:17:10;7.30;;;3.17;;
68089;SDS011;54880;50.986;6.990;2022-08-11T09:19:36;7.22;;;3.20;;
68089;SDS011;54880;50.986;6.990;2022-08-11T09:22:01;7.27;;;3.20;;
68089;SDS011;54880;50.986;6.990;2022-08-11T09:24:45;7.78;;;3.30;;
68089;SDS011;54880;50.986;6.990;2022-08-11T09:27:31;10.77;;;2.97;;
68089;SDS011;54880;50.986;6.990;2022-08-11T09:29:56;8.43;;;3.37;;
68089;SDS011;54880;50.986;6.990;2022-08-11T09:32:22;8.07;;;3.00;;
68089;SDS011;54880;50.986;6.990;2022-08-11T09:34:49;8.43;;;3.07;;
68089;SDS011;54880;50.986;6.990;2022-08-11T09:37:16;8.27;;;3.15;;
68089;SDS011;54880;50.986;6.990;2022-08-11T09:40:00;5.97;;;3.00;;
68089;SDS011;54880;50.986;6.990;2022-08-11T09:42:44;6.38;;;3.00;;
68089;SDS011;54880;50.986;6.990;2022-08-11T09:45:28;7.25;;;3.10;;
68089;SDS011;54880;50.986;6.990;2022-08-11T09:47:55;9.30;;;2.90;;
68089;SDS011;54880;50.986;6.990;2022-08-11T09:50:22;7.95;;;3.20;;
68089;SDS011;54880;50.986;6.990;2022-08-11T09:52:47;7.57;;;3.30;;
68089;SDS011;54880;50.986;6.990;2022-08-11T09:55:13;8.27;;;3.33;;
68089;SDS011;54880;50.986;6.990;2022-08-11T09:57:40;7.97;;;3.37;;
68089;SDS011;54880;50.986;6.990;2022-08-11T10:00:28;7.32;;;3.25;;
68089;SDS011;54880;50.986;6.990;2022-08-11T10:02:54;7.90;;;2.90;;
68089;SDS011;54880;50.986;6.990;2022-08-11T10:05:21;8.65;;;3.10;;
68089;SDS011;54880;50.986;6.990;2022-08-11T10:08:06;6.43;;;3.10;;
68089;SDS011;54880;50.986;6.990;2022-08-11T10:10:36;8.38;;;2.92;;
68089;SDS011;54880;50.986;6.990;2022-08-11T10:13:03;6.85;;;3.22;;
68089;SDS011;54880;50.986;6.990;2022-08-11T10:15:29;6.93;;;2.80;;
68089;SDS011;54880;50.986;6.990;2022-08-11T10:18:03;9.43;;;3.10;;
68089;SDS011;54880;50.986;6.990;2022-08-11T10:20:48;6.47;;;3.00;;
68089;SDS011;54880;50.986;6.990;2022-08-11T10:23:14;9.07;;;3.30;;
68089;SDS011;54880;50.986;6.990;2022-08-11T10:25:58;8.15;;;2.95;;
68089;SDS011;54880;50.986;6.990;2022-08-11T10:28:42;6.45;;;3.10;;
68089;SDS011;54880;50.986;6.990;2022-08-11T10:31:08;7.60;;;3.00;;
68089;SDS011;54880;50.986;6.990;2022-08-11T10:33:52;8.77;;;3.28;;
68089;SDS011;54880;50.986;6.990;2022-08-11T10:36:37;8.48;;;3.10;;
68089;SDS011;54880;50.986;6.990;2022-08-11T10:39:14;6.53;;;3.00;;
68089;SDS011;54880;50.986;6.990;2022-08-11T10:41:42;8.83;;;3.03;;
68089;SDS011;54880;50.986;6.990;2022-08-11T10:44:26;10.32;;;3.30;;
68089;SDS011;54880;50.986;6.990;2022-08-11T10:46:52;7.05;;;3.17;;
68089;SDS011;54880;50.986;6.990;2022-08-11T10:49:36;7.60;;;3.10;;
68089;SDS011;54880;50.986;6.990;2022-08-11T10:52:01;7.68;;;3.17;;
68089;SDS011;54880;50.986;6.990;2022-08-11T10:54:45;8.80;;;2.93;;
68089;SDS011;54880;50.986;6.990;2022-08-11T10:57:30;8.40;;;2.95;;
68089;SDS011;54880;50.986;6.990;2022-08-11T11:00:14;9.25;;;3.45;;
68089;SDS011;54880;50.986;6.990;2022-08-11T11:02:40;8.48;;;3.20;;
68089;SDS011;54880;50.986;6.990;2022-08-11T11:05:26;7.85;;;3.22;;
68089;SDS011;54880;50.986;6.990;2022-08-11T11:08:13;6.87;;;3.00;;
68089;SDS011;54880;50.986;6.990;2022-08-11T11:10:58;7.05;;;3.15;;
68089;SDS011;54880;50.986;6.990;2022-08-11T11:13:24;8.40;;;3.30;;
68089;SDS011;54880;50.986;6.990;2022-08-11T11:16:08;8.75;;;3.53;;
68089;SDS011;54880;50.986;6.990;2022-08-11T11:18:53;8.50;;;3.42;;
68089;SDS011;54880;50.986;6.990;2022-08-11T11:21:19;6.50;;;2.87;;
68089;SDS011;54880;50.986;6.990;2022-08-11T11:36:58;7.23;;;3.00;;
68089;SDS011;54880;50.986;6.990;2022-08-11T11:39:29;9.27;;;3.38;;
68089;SDS011;54880;50.986;6.990;2022-08-11T11:41:57;5.82;;;2.92;;
68089;SDS011;54880;50.986;6.990;2022-08-11T11:44:23;10.23;;;3.10;;
68089;SDS011;54880;50.986;6.990;2022-08-11T11:46:49;6.63;;;3.53;;
68089;SDS011;54880;50.986;6.990;2022-08-11T11:49:22;6.65;;;3.15;;
68089;SDS011;54880;50.986;6.990;2022-08-11T11:51:48;7.88;;;3.22;;
68089;SDS011;54880;50.986;6.990;2022-08-11T11:54:16;7.60;;;3.50;;
68089;SDS011;54880;50.986;6.990;2022-08-11T11:56:42;7.72;;;3.60;;
68089;SDS011;54880;50.986;6.990;2022-08-11T11:59:07;8.77;;;3.60;;
68089;SDS011;54880;50.986;6.990;2022-08-11T12:01:52;8.82;;;3.03;;
68089;SDS011;54880;50.986;6.990;2022-08-11T12:04:18;6.43;;;3.22;;
68089;SDS011;54880;50.986;6.990;2022-08-11T12:06:44;7.53;;;3.57;;
68089;SDS011;54880;50.986;6.990;2022-08-11T12:09:11;5.80;;;2.90;;
68089;SDS011;54880;50.986;6.990;2022-08-11T12:11:38;8.23;;;3.25;;
68089;SDS011;54880;50.986;6.990;2022-08-11T12:14:22;10.30;;;3.97;;
68089;SDS011;54880;50.986;6.990;2022-08-11T12:16:51;7.80;;;3.15;;
68089;SDS011;54880;50.986;6.990;2022-08-11T12:19:18;9.30;;;3.40;;
68089;SDS011;54880;50.986;6.990;2022-08-11T12:21:46;6.00;;;2.92;;
68089;SDS011;54880;50.986;6.990;2022-08-11T12:24:31;9.18;;;3.28;;
68089;SDS011;54880;50.986;6.990;2022-08-11T12:27:15;7.03;;;3.17;;
68089;SDS011;54880;50.986;6.990;2022-08-11T12:29:57;8.50;;;3.40;;
68089;SDS011;54880;50.986;6.990;2022-08-11T12:32:25;9.20;;;3.30;;
68089;SDS011;54880;50.986;6.990;2022-08-11T12:34:50;7.55;;;2.97;;
68089;SDS011;54880;50.986;6.990;2022-08-11T12:37:19;8.68;;;3.45;;
68089;SDS011;54880;50.986;6.990;2022-08-11T12:39:48;6.88;;;2.92;;
68089;SDS011;54880;50.986;6.990;2022-08-11T12:42:33;6.03;;;3.07;;
68089;SDS011;54880;50.986;6.990;2022-08-11T12:45:17;7.32;;;3.80;;
68089;SDS011;54880;50.986;6.990;2022-08-11T12:47:52;10.15;;;3.35;;
68089;SDS011;54880;50.986;6.990;2022-08-11T12:50:36;8.70;;;3.17;;
68089;SDS011;54880;50.986;6.990;2022-08-11T12:53:24;8.93;;;3.03;;
68089;SDS011;54880;50.986;6.990;2022-08-11T12:55:52;9.57;;;3.20;;
68089;SDS011;54880;50.986;6.990;2022-08-11T12:58:36;7.55;;;3.10;;
68089;SDS011;54880;50.986;6.990;2022-08-11T13:01:04;8.05;;;3.50;;
68089;SDS011;54880;50.986;6.990;2022-08-11T13:03:48;9.43;;;3.03;;
68089;SDS011;54880;50.986;6.990;2022-08-11T13:06:32;9.85;;;3.22;;
68089;SDS011;54880;50.986;6.990;2022-08-11T13:08:58;7.83;;;3.00;;
68089;SDS011;54880;50.986;6.990;2022-08-11T13:11:23;8.27;;;3.38;;
68089;SDS011;54880;50.986;6.990;2022-08-11T13:14:07;6.93;;;3.23;;
68089;SDS011;54880;50.986;6.990;2022-08-11T13:16:33;8.00;;;2.95;;
68089;SDS011;54880;50.986;6.990;2022-08-11T13:19:18;8.53;;;3.50;;
68089;SDS011;54880;50.986;6.990;2022-08-11T13:21:44;8.93;;;3.47;;
68089;SDS011;54880;50.986;6.990;2022-08-11T13:24:10;7.65;;;3.40;;
68089;SDS011;54880;50.986;6.990;2022-08-11T13:26:36;8.47;;;3.10;;
68089;SDS011;54880;50.986;6.990;2022-08-11T13:29:01;7.13;;;3.05;;
68089;SDS011;54880;50.986;6.990;2022-08-11T13:31:27;6.90;;;3.35;;
68089;SDS011;54880;50.986;6.990;2022-08-11T13:33:53;8.47;;;2.70;;
68089;SDS011;54880;50.986;6.990;2022-08-11T13:36:19;8.70;;;3.23;;
68089;SDS011;54880;50.986;6.990;2022-08-11T13:38:44;7.78;;;3.30;;
68089;SDS011;54880;50.986;6.990;2022-08-11T13:41:10;7.20;;;3.47;;
68089;SDS011;54880;50.986;6.990;2022-08-11T13:43:54;8.18;;;3.70;;
68089;SDS011;54880;50.986;6.990;2022-08-11T13:46:21;9.77;;;3.35;;
68089;SDS011;54880;50.986;6.990;2022-08-11T13:48:48;7.23;;;3.00;;
68089;SDS011;54880;50.986;6.990;2022-08-11T13:51:14;7.18;;;3.47;;
68089;SDS011;54880;50.986;6.990;2022-08-11T13:53:59;7.50;;;3.85;;
68089;SDS011;54880;50.986;6.990;2022-08-11T13:56:25;9.05;;;3.28;;
68089;SDS011;54880;50.986;6.990;2022-08-11T13:58:51;6.20;;;3.17;;
68089;SDS011;54880;50.986;6.990;2022-08-11T14:01:18;9.67;;;3.10;;
68089;SDS011;54880;50.986;6.990;2022-08-11T14:03:44;7.30;;;3.53;;
68089;SDS011;54880;50.986;6.990;2022-08-11T14:06:10;7.25;;;3.10;;
68089;SDS011;54880;50.986;6.990;2022-08-11T14:08:37;7.63;;;3.35;;
68089;SDS011;54880;50.986;6.990;2022-08-11T14:11:03;10.15;;;3.95;;
68089;SDS011;54880;50.986;6.990;2022-08-11T14:13:49;11.67;;;4.20;;
68089;SDS011;54880;50.986;6.990;2022-08-11T14:16:17;8.30;;;3.30;;
68089;SDS011;54880;50.986;6.990;2022-08-11T14:18:44;7.20;;;3.47;;
68089;SDS011;54880;50.986;6.990;2022-08-11T14:21:11;8.27;;;3.00;;
68089;SDS011;54880;50.986;6.990;2022-08-11T14:23:55;6.38;;;3.40;;
68089;SDS011;54880;50.986;6.990;2022-08-11T14:26:23;6.63;;;3.60;;
68089;SDS011;54880;50.986;6.990;2022-08-11T14:29:04;9.35;;;3.47;;
68089;SDS011;54880;50.986;6.990;2022-08-11T14:31:30;7.30;;;2.80;;
68089;SDS011;54880;50.986;6.990;2022-08-11T14:33:58;7.93;;;4.20;;
68089;SDS011;54880;50.986;6.990;2022-08-11T14:36:27;8.35;;;3.42;;
68089;SDS011;54880;50.986;6.990;2022-08-11T14:38:52;9.50;;;3.70;;
68089;SDS011;54880;50.986;6.990;2022-08-11T14:41:18;8.07;;;3.47;;
68089;SDS011;54880;50.986;6.990;2022-08-11T14:44:04;6.53;;;3.42;;
68089;SDS011;54880;50.986;6.990;2022-08-11T14:46:49;7.70;;;3.30;;
68089;SDS011;54880;50.986;6.990;2022-08-11T14:49:30;8.68;;;3.45;;
68089;SDS011;54880;50.986;6.990;2022-08-11T14:51:57;6.80;;;3.30;;
68089;SDS011;54880;50.986;6.990;2022-08-11T14:54:27;7.32;;;3.38;;
68089;SDS011;54880;50.986;6.990;2022-08-11T14:57:11;10.40;;;3.90;;
68089;SDS011;54880;50.986;6.990;2022-08-11T14:59:37;9.55;;;3.42;;
68089;SDS011;54880;50.986;6.990;2022-08-11T15:02:03;6.20;;;3.70;;
68089;SDS011;54880;50.986;6.990;2022-08-11T15:04:47;7.10;;;3.40;;
68089;SDS011;54880;50.986;6.990;2022-08-11T15:07:13;8.38;;;3.40;;
68089;SDS011;54880;50.986;6.990;2022-08-11T15:09:41;11.20;;;3.20;;
68089;SDS011;54880;50.986;6.990;2022-08-11T15:12:08;5.53;;;3.15;;
68089;SDS011;54880;50.986;6.990;2022-08-11T15:14:40;7.07;;;3.07;;
68089;SDS011;54880;50.986;6.990;2022-08-11T15:17:25;14.35;;;3.50;;
68089;SDS011;54880;50.986;6.990;2022-08-11T15:19:51;9.60;;;3.50;;
68089;SDS011;54880;50.986;6.990;2022-08-11T15:22:35;7.50;;;3.67;;
68089;SDS011;54880;50.986;6.990;2022-08-11T15:25:19;6.63;;;3.30;;
68089;SDS011;54880;50.986;6.990;2022-08-11T15:27:46;7.13;;;4.30;;
68089;SDS011;54880;50.986;6.990;2022-08-11T15:30:30;8.52;;;4.80;;
68089;SDS011;54880;50.986;6.990;2022-08-11T15:33:15;7.90;;;5.23;;
68089;SDS011;54880;50.986;6.990;2022-08-11T15:36:00;8.25;;;4.80;;
68089;SDS011;54880;50.986;6.990;2022-08-11T15:38:50;7.78;;;4.97;;
68089;SDS011;54880;50.986;6.990;2022-08-11T15:41:17;6.95;;;5.00;;
68089;SDS011;54880;50.986;6.990;2022-08-11T15:44:02;9.35;;;5.40;;
68089;SDS011;54880;50.986;6.990;2022-08-11T15:46:49;8.13;;;4.57;;
68089;SDS011;54880;50.986;6.990;2022-08-11T15:49:21;9.75;;;5.85;;
68089;SDS011;54880;50.986;6.990;2022-08-11T15:51:48;8.10;;;5.80;;
68089;SDS011;54880;50.986;6.990;2022-08-11T15:54:18;8.38;;;5.47;;
68089;SDS011;54880;50.986;6.990;2022-08-11T15:56:45;7.82;;;5.80;;
68089;SDS011;54880;50.986;6.990;2022-08-11T15:59:13;9.50;;;5.67;;
68089;SDS011;54880;50.986;6.990;2022-08-11T16:01:59;9.57;;;5.72;;
68089;SDS011;54880;50.986;6.990;2022-08-11T16:04:54;10.15;;;7.00;;
68089;SDS011;54880;50.986;6.990;2022-08-11T16:07:22;9.32;;;6.50;;
68089;SDS011;54880;50.986;6.990;2022-08-11T16:10:09;8.40;;;5.88;;
68089;SDS011;54880;50.986;6.990;2022-08-11T16:12:39;9.03;;;5.03;;
68089;SDS011;54880;50.986;6.990;2022-08-11T16:15:06;9.13;;;5.70;;
68089;SDS011;54880;50.986;6.990;2022-08-11T16:17:53;9.60;;;7.30;;
68089;SDS011;54880;50.986;6.990;2022-08-11T16:20:20;7.30;;;6.07;;
68089;SDS011;54880;50.986;6.990;2022-08-11T16:22:47;10.60;;;6.57;;
68089;SDS011;54880;50.986;6.990;2022-08-11T16:25:17;7.20;;;6.00;;
68089;SDS011;54880;50.986;6.990;2022-08-11T16:27:47;11.00;;;6.35;;
68089;SDS011;54880;50.986;6.990;2022-08-11T16:30:13;9.05;;;6.63;;
68089;SDS011;54880;50.986;6.990;2022-08-11T16:32:39;7.87;;;6.17;;
68089;SDS011;54880;50.986;6.990;2022-08-11T16:35:09;13.20;;;7.20;;
68089;SDS011;54880;50.986;6.990;2022-08-11T16:37:53;9.63;;;7.07;;
68089;SDS011;54880;50.986;6.990;2022-08-11T16:40:38;8.77;;;6.35;;
68089;SDS011;54880;50.986;6.990;2022-08-11T16:43:04;9.00;;;6.60;;
68089;SDS011;54880;50.986;6.990;2022-08-11T16:45:48;7.53;;;6.72;;
68089;SDS011;54880;50.986;6.990;2022-08-11T16:48:33;9.88;;;6.32;;
68089;SDS011;54880;50.986;6.990;2022-08-11T16:50:59;7.70;;;6.15;;
68089;SDS011;54880;50.986;6.990;2022-08-11T16:53:26;8.33;;;6.40;;
68089;SDS011;54880;50.986;6.990;2022-08-11T16:55:51;7.80;;;7.00;;
68089;SDS011;54880;50.986;6.990;2022-08-11T16:58:17;7.30;;;5.93;;
68089;SDS011;54880;50.986;6.990;2022-08-11T17:01:02;8.25;;;6.10;;
68089;SDS011;54880;50.986;6.990;2022-08-11T17:03:27;8.43;;;5.97;;
68089;SDS011;54880;50.986;6.990;2022-08-11T17:06:11;8.05;;;6.20;;
68089;SDS011;54880;50.986;6.990;2022-08-11T17:08:56;8.85;;;5.97;;
68089;SDS011;54880;50.986;6.990;2022-08-11T17:11:44;8.48;;;6.22;;
68089;SDS011;54880;50.986;6.990;2022-08-11T17:14:36;9.53;;;5.60;;
68089;SDS011;54880;50.986;6.990;2022-08-11T17:17:03;7.00;;;5.28;;
68089;SDS011;54880;50.986;6.990;2022-08-11T17:19:30;7.45;;;5.75;;
68089;SDS011;54880;50.986;6.990;2022-08-11T17:21:57;8.25;;;5.28;;
68089;SDS011;54880;50.986;6.990;2022-08-11T17:24:45;6.65;;;5.45;;
68089;SDS011;54880;50.986;6.990;2022-08-11T17:27:10;9.23;;;5.50;;
68089;SDS011;54880;50.986;6.990;2022-08-11T17:29:45;8.85;;;5.53;;
68089;SDS011;54880;50.986;6.990;2022-08-11T17:32:15;8.90;;;6.20;;
68089;SDS011;54880;50.986;6.990;2022-08-11T17:35:04;9.35;;;5.10;;
68089;SDS011;54880;50.986;6.990;2022-08-11T17:37:49;8.95;;;5.20;;
68089;SDS011;54880;50.986;6.990;2022-08-11T17:40:17;8.33;;;5.10;;
68089;SDS011;54880;50.986;6.990;2022-08-11T17:42:45;7.45;;;4.95;;
68089;SDS011;54880;50.986;6.990;2022-08-11T17:45:29;6.80;;;5.70;;
68089;SDS011;54880;50.986;6.990;2022-08-11T17:48:13;10.60;;;5.22;;
68089;SDS011;54880;50.986;6.990;2022-08-11T17:50:52;7.35;;;4.88;;
68089;SDS011;54880;50.986;6.990;2022-08-11T17:53:18;10.67;;;4.90;;
68089;SDS011;54880;50.986;6.990;2022-08-11T17:56:03;7.80;;;4.45;;
68089;SDS011;54880;50.986;6.990;2022-08-11T17:58:47;9.63;;;4.47;;
68089;SDS011;54880;50.986;6.990;2022-08-11T18:01:32;7.47;;;3.42;;
68089;SDS011;54880;50.986;6.990;2022-08-11T18:03:59;7.82;;;4.45;;
68089;SDS011;54880;50.986;6.990;2022-08-11T18:06:29;6.23;;;3.83;;
68089;SDS011;54880;50.986;6.990;2022-08-11T18:08:56;6.40;;;3.72;;
68089;SDS011;54880;50.986;6.990;2022-08-11T18:11:41;7.20;;;3.97;;
68089;SDS011;54880;50.986;6.990;2022-08-11T18:14:25;7.35;;;3.35;;
68089;SDS011;54880;50.986;6.990;2022-08-11T18:17:09;7.15;;;3.60;;
68089;SDS011;54880;50.986;6.990;2022-08-11T18:19:53;10.27;;;4.10;;
68089;SDS011;54880;50.986;6.990;2022-08-11T18:22:39;8.63;;;3.50;;
68089;SDS011;54880;50.986;6.990;2022-08-11T18:25:25;8.82;;;3.75;;
68089;SDS011;54880;50.986;6.990;2022-08-11T18:28:10;7.75;;;3.78;;
68089;SDS011;54880;50.986;6.990;2022-08-11T18:30:55;9.93;;;3.78;;
68089;SDS011;54880;50.986;6.990;2022-08-11T18:33:45;9.03;;;3.70;;
68089;SDS011;54880;50.986;6.990;2022-08-11T18:36:40;9.13;;;3.55;;
68089;SDS011;54880;50.986;6.990;2022-08-11T18:39:26;7.00;;;3.60;;
68089;SDS011;54880;50.986;6.990;2022-08-11T18:42:13;7.97;;;3.80;;
68089;SDS011;54880;50.986;6.990;2022-08-11T18:44:58;7.07;;;3.65;;